createdAt,value
2018-10-07T00:01:07.414Z,15.10
2018-10-07T00:03:35.978Z,15.00
2018-10-07T00:06:04.676Z,15.00
2018-10-07T00:08:33.346Z,14.90
2018-10-07T00:11:01.871Z,14.90
2018-10-07T00:13:30.400Z,14.90
2018-10-07T00:15:59.031Z,14.80
2018-10-07T00:18:27.560Z,14.80
2018-10-07T00:20:56.058Z,14.70
2018-10-07T00:23:25.856Z,14.70
2018-10-07T00:25:54.672Z,14.70
2018-10-07T00:28:23.359Z,14.60
2018-10-07T00:30:51.969Z,14.50
2018-10-07T00:33:22.532Z,14.50
2018-10-07T00:35:51.039Z,14.40
2018-10-07T00:38:19.470Z,14.40
2018-10-07T00:40:49.029Z,14.40
2018-10-07T00:43:17.558Z,14.30
2018-10-07T00:45:46.086Z,14.20
2018-10-07T00:48:14.658Z,14.20
2018-10-07T00:50:43.466Z,14.00
2018-10-07T00:53:12.085Z,14.00
2018-10-07T00:55:40.524Z,14.00
2018-10-07T00:58:08.992Z,14.00
2018-10-07T01:00:37.580Z,14.00
2018-10-07T01:03:06.158Z,14.00
2018-10-07T01:05:34.637Z,13.90
2018-10-07T01:08:03.188Z,13.90
2018-10-07T01:10:31.690Z,13.80
2018-10-07T01:13:00.077Z,13.80
2018-10-07T01:15:28.657Z,13.70
2018-10-07T01:17:57.346Z,13.60
2018-10-07T01:20:25.784Z,13.60
2018-10-07T01:22:54.271Z,13.60
2018-10-07T01:25:22.911Z,13.50
2018-10-07T01:27:51.446Z,13.40
2018-10-07T01:30:23.638Z,13.40
2018-10-07T01:32:54.281Z,13.40
2018-10-07T01:35:22.768Z,13.50
2018-10-07T01:37:51.416Z,13.50
2018-10-07T01:40:19.816Z,13.60
2018-10-07T01:42:48.469Z,13.50
2018-10-07T01:45:17.062Z,13.50
2018-10-07T01:47:45.585Z,13.50
2018-10-07T01:50:14.269Z,13.40
2018-10-07T01:52:42.869Z,13.30
2018-10-07T01:55:11.442Z,13.40
2018-10-07T01:57:40.015Z,13.40
2018-10-07T02:00:08.644Z,13.40
2018-10-07T02:02:37.097Z,13.30
2018-10-07T02:05:05.896Z,13.30
2018-10-07T02:07:34.352Z,13.30
2018-10-07T02:10:02.899Z,13.30
2018-10-07T02:12:31.282Z,13.20
2018-10-07T02:14:59.799Z,13.20
2018-10-07T02:17:28.472Z,13.20
2018-10-07T02:19:57.320Z,13.20
2018-10-07T02:22:25.869Z,13.30
2018-10-07T02:24:54.423Z,13.20
2018-10-07T02:27:22.980Z,13.20
2018-10-07T02:29:51.414Z,13.10
2018-10-07T02:32:20.191Z,13.10
2018-10-07T02:34:48.766Z,13.20
2018-10-07T02:37:17.264Z,13.20
2018-10-07T02:39:45.926Z,13.20
2018-10-07T02:42:14.606Z,13.20
2018-10-07T02:44:43.270Z,13.30
2018-10-07T02:47:11.866Z,13.30
2018-10-07T02:49:40.452Z,13.30
2018-10-07T02:52:08.981Z,13.30
2018-10-07T02:54:37.647Z,13.20
2018-10-07T02:57:06.278Z,13.20
2018-10-07T02:59:34.926Z,13.30
2018-10-07T03:02:03.481Z,13.30
2018-10-07T03:04:32.104Z,13.30
2018-10-07T03:07:00.489Z,13.30
2018-10-07T03:09:29.057Z,13.30
2018-10-07T03:11:57.548Z,13.20
2018-10-07T03:14:26.208Z,13.10
2018-10-07T03:16:54.698Z,13.10
2018-10-07T03:19:23.369Z,13.00
2018-10-07T03:21:51.933Z,13.00
2018-10-07T03:24:20.501Z,13.00
2018-10-07T03:26:48.943Z,13.00
2018-10-07T03:29:17.539Z,13.00
2018-10-07T03:31:46.073Z,12.90
2018-10-07T03:34:14.621Z,12.90
2018-10-07T03:36:43.105Z,12.80
2018-10-07T03:39:11.583Z,12.60
2018-10-07T03:41:40.429Z,12.70
2018-10-07T03:44:08.901Z,12.60
2018-10-07T03:46:37.334Z,12.60
2018-10-07T03:49:05.916Z,12.70
2018-10-07T03:51:34.493Z,12.70
2018-10-07T03:54:03.081Z,12.60
2018-10-07T03:56:31.606Z,12.60
2018-10-07T03:59:00.172Z,12.50
2018-10-07T04:01:28.809Z,12.50
2018-10-07T04:03:57.294Z,12.60
2018-10-07T04:06:25.797Z,12.60
2018-10-07T04:08:54.508Z,12.60
2018-10-07T04:11:23.685Z,12.50
2018-10-07T04:13:52.153Z,12.50
2018-10-07T04:16:20.694Z,12.50
2018-10-07T04:18:49.401Z,12.50
2018-10-07T04:21:17.921Z,12.50
2018-10-07T04:23:46.410Z,12.40
2018-10-07T04:26:15.025Z,12.40
2018-10-07T04:28:43.553Z,12.40
2018-10-07T04:31:11.987Z,12.40
2018-10-07T04:33:40.573Z,12.40
2018-10-07T04:36:09.087Z,12.40
2018-10-07T04:38:38.092Z,12.40
2018-10-07T04:41:06.686Z,12.40
2018-10-07T04:43:35.160Z,12.40
2018-10-07T04:46:03.726Z,12.30
2018-10-07T04:48:32.273Z,12.30
2018-10-07T04:51:00.811Z,12.30
2018-10-07T04:53:29.347Z,12.20
2018-10-07T04:55:57.906Z,12.20
2018-10-07T04:58:26.394Z,12.20
2018-10-07T05:00:54.948Z,12.20
2018-10-07T05:03:23.387Z,12.20
2018-10-07T05:05:51.956Z,12.20
2018-10-07T05:08:20.520Z,12.20
2018-10-07T05:10:52.797Z,12.20
2018-10-07T05:13:24.519Z,12.20
2018-10-07T05:15:55.331Z,12.20
2018-10-07T05:18:24.349Z,12.10
2018-10-07T05:20:53.430Z,12.10
2018-10-07T05:23:21.929Z,12.00
2018-10-07T05:25:50.449Z,12.00
2018-10-07T05:28:19.260Z,11.90
2018-10-07T05:30:47.650Z,11.90
2018-10-07T05:33:16.126Z,11.90
2018-10-07T05:35:44.682Z,11.90
2018-10-07T05:38:13.121Z,11.90
2018-10-07T05:40:41.605Z,11.90
2018-10-07T05:43:09.961Z,11.90
2018-10-07T05:45:38.479Z,11.90
2018-10-07T05:48:07.037Z,11.90
2018-10-07T05:50:35.474Z,11.90
2018-10-07T05:53:03.975Z,11.80
2018-10-07T05:55:32.425Z,11.80
2018-10-07T05:58:02.983Z,11.70
2018-10-07T06:00:32.038Z,11.70
2018-10-07T06:03:07.242Z,11.70
2018-10-07T06:05:35.854Z,11.60
2018-10-07T06:08:04.348Z,11.50
2018-10-07T06:10:32.909Z,11.60
2018-10-07T06:13:01.430Z,11.50
2018-10-07T06:15:33.187Z,11.50
2018-10-07T06:18:01.785Z,11.50
2018-10-07T06:20:30.870Z,11.40
2018-10-07T06:22:59.572Z,11.40
2018-10-07T06:25:28.098Z,11.40
2018-10-07T06:27:57.021Z,11.40
2018-10-07T06:30:25.782Z,11.40
2018-10-07T06:32:54.739Z,11.40
2018-10-07T06:35:24.130Z,11.40
2018-10-07T06:37:52.851Z,11.40
2018-10-07T06:40:21.477Z,11.40
2018-10-07T06:42:49.997Z,11.40
2018-10-07T06:45:18.488Z,11.40
2018-10-07T06:47:46.973Z,11.40
2018-10-07T06:50:15.485Z,11.50
2018-10-07T06:52:44.007Z,11.50
2018-10-07T06:55:12.552Z,11.50
2018-10-07T06:57:41.035Z,11.50
2018-10-07T07:00:09.737Z,11.60
2018-10-07T07:02:38.181Z,11.60
2018-10-07T07:05:06.653Z,11.60
2018-10-07T07:07:35.196Z,11.70
2018-10-07T07:10:03.744Z,11.70
2018-10-07T07:12:32.249Z,11.70
2018-10-07T07:15:00.723Z,11.80
2018-10-07T07:17:29.194Z,11.90
2018-10-07T07:19:57.900Z,11.90
2018-10-07T07:22:26.236Z,12.00
2018-10-07T07:24:54.697Z,12.00
2018-10-07T07:27:23.087Z,12.10
2018-10-07T07:29:51.581Z,12.20
2018-10-07T07:32:20.069Z,12.20
2018-10-07T07:34:48.508Z,12.30
2018-10-07T07:37:17.024Z,12.40
2018-10-07T07:39:45.696Z,12.40
2018-10-07T07:42:14.210Z,12.50
2018-10-07T07:44:42.797Z,12.60
2018-10-07T07:47:11.489Z,12.60
2018-10-07T07:49:40.167Z,12.70
2018-10-07T07:52:08.839Z,12.80
2018-10-07T07:54:37.384Z,12.80
2018-10-07T07:57:05.917Z,12.90
2018-10-07T07:59:34.564Z,12.90
2018-10-07T08:02:03.188Z,12.80
2018-10-07T08:04:31.710Z,12.90
2018-10-07T08:07:00.265Z,12.90
2018-10-07T08:09:28.796Z,12.90
2018-10-07T08:11:57.479Z,13.00
2018-10-07T08:14:26.026Z,13.10
2018-10-07T08:16:54.516Z,13.20
2018-10-07T08:19:23.014Z,13.30
2018-10-07T08:21:51.576Z,13.40
2018-10-07T08:24:20.101Z,13.40
2018-10-07T08:26:48.646Z,13.50
2018-10-07T08:29:17.288Z,13.50
2018-10-07T08:31:45.731Z,13.60
2018-10-07T08:34:14.219Z,13.60
2018-10-07T08:36:42.717Z,13.60
2018-10-07T08:39:11.405Z,13.60
2018-10-07T08:41:40.004Z,13.60
2018-10-07T08:44:08.655Z,13.70
2018-10-07T08:46:37.161Z,13.70
2018-10-07T08:49:05.805Z,13.80
2018-10-07T08:51:34.316Z,13.80
2018-10-07T08:54:02.701Z,13.80
2018-10-07T08:56:31.258Z,13.90
2018-10-07T08:58:59.724Z,13.90
2018-10-07T09:01:28.120Z,13.90
2018-10-07T09:03:56.561Z,14.00
2018-10-07T09:06:25.072Z,14.10
2018-10-07T09:08:53.691Z,14.10
2018-10-07T09:11:22.079Z,14.10
2018-10-07T09:13:51.823Z,14.10
2018-10-07T09:16:27.496Z,14.10
2018-10-07T09:19:03.642Z,14.00
2018-10-07T09:21:32.188Z,14.00
2018-10-07T09:24:03.390Z,14.00
2018-10-07T09:26:37.233Z,14.10
2018-10-07T09:29:05.965Z,14.10
2018-10-07T09:31:34.604Z,14.10
2018-10-07T09:34:07.609Z,14.10
2018-10-07T09:36:36.413Z,14.10
2018-10-07T09:39:07.567Z,14.00
2018-10-07T09:41:36.413Z,14.10
2018-10-07T09:44:05.078Z,14.10
2018-10-07T09:46:33.638Z,14.20
2018-10-07T09:49:02.240Z,14.20
2018-10-07T09:51:30.621Z,14.30
2018-10-07T09:53:59.085Z,14.50
2018-10-07T09:56:27.622Z,14.50
2018-10-07T09:58:56.122Z,14.60
2018-10-07T10:01:24.701Z,14.50
2018-10-07T10:03:53.122Z,14.60
2018-10-07T10:06:21.616Z,14.60
2018-10-07T10:08:50.307Z,14.70
2018-10-07T10:11:18.865Z,14.80
2018-10-07T10:13:47.366Z,15.00
2018-10-07T10:16:15.902Z,15.10
2018-10-07T10:18:46.356Z,15.10
2018-10-07T10:21:49.440Z,15.10
2018-10-07T10:24:27.580Z,15.10
2018-10-07T10:27:02.674Z,15.00
2018-10-07T10:29:33.801Z,14.90
2018-10-07T10:32:39.057Z,15.00
2018-10-07T10:37:22.310Z,15.30
2018-10-07T10:39:52.719Z,15.40
2018-10-07T10:42:55.734Z,15.40
2018-10-07T10:45:53.640Z,15.40
2018-10-07T10:48:31.216Z,15.50
2018-10-07T10:51:09.281Z,15.70
2018-10-07T10:53:43.856Z,16.00
2018-10-07T10:56:29.418Z,16.30
2018-10-07T10:59:38.568Z,16.50
2018-10-07T11:02:15.407Z,16.80
2018-10-07T11:05:50.164Z,17.00
2018-10-07T11:08:35.464Z,17.10
2018-10-07T11:11:12.388Z,16.90
2018-10-07T11:13:45.714Z,16.80
2018-10-07T11:16:25.764Z,16.90
2018-10-07T11:18:59.704Z,17.20
2018-10-07T11:21:40.092Z,17.40
2018-10-07T11:24:13.327Z,17.60
2018-10-07T11:26:51.338Z,17.90
2018-10-07T11:32:32.186Z,18.40
2018-10-07T11:38:28.652Z,18.70
2018-10-07T11:41:04.482Z,18.90
2018-10-07T11:43:44.678Z,19.20
2018-10-07T11:50:18.333Z,19.30
2018-10-07T11:53:02.967Z,19.40
2018-10-07T11:55:31.975Z,19.50
2018-10-07T11:58:08.617Z,19.50
2018-10-07T12:01:01.492Z,19.60
2018-10-07T12:03:35.596Z,19.70
2018-10-07T12:06:08.181Z,19.80
2018-10-07T12:08:48.473Z,20.00
2018-10-07T12:11:17.130Z,20.00
2018-10-07T12:13:45.910Z,20.10
2018-10-07T12:16:14.799Z,20.20
2018-10-07T12:18:46.434Z,20.10
2018-10-07T12:21:14.958Z,20.00
2018-10-07T12:23:44.128Z,20.00
2018-10-07T12:26:14.191Z,20.00
2018-10-07T12:28:42.812Z,20.00
2018-10-07T12:31:14.421Z,20.00
2018-10-07T12:33:42.867Z,19.80
2018-10-07T12:36:14.430Z,19.70
2018-10-07T12:38:46.369Z,19.50
2018-10-07T12:41:14.945Z,19.40
2018-10-07T12:43:44.525Z,19.30
2018-10-07T12:46:14.297Z,19.00
2018-10-07T12:48:44.254Z,19.00
2018-10-07T12:51:16.158Z,19.10
2018-10-07T12:53:44.722Z,19.20
2018-10-07T12:56:13.426Z,19.40
2018-10-07T12:58:41.949Z,19.50
2018-10-07T13:01:12.695Z,19.40
2018-10-07T13:03:43.501Z,19.40
2018-10-07T13:06:13.066Z,19.40
2018-10-07T13:08:44.271Z,19.50
2018-10-07T13:11:16.203Z,19.40
2018-10-07T13:13:44.862Z,19.40
2018-10-07T13:16:16.250Z,19.30
2018-10-07T13:18:45.066Z,19.30
2018-10-07T13:21:13.781Z,19.20
2018-10-07T13:23:46.443Z,19.10
2018-10-07T13:26:15.136Z,19.00
2018-10-07T13:28:43.773Z,18.80
2018-10-07T13:31:14.717Z,18.50
2018-10-07T13:33:43.340Z,18.30
2018-10-07T13:36:11.898Z,18.20
2018-10-07T13:38:40.453Z,18.20
2018-10-07T13:41:13.320Z,18.20
2018-10-07T13:43:43.232Z,18.10
2018-10-07T13:46:13.230Z,18.10
2018-10-07T13:48:42.418Z,18.10
2018-10-07T13:51:12.367Z,18.20
2018-10-07T13:53:41.122Z,18.30
2018-10-07T13:56:11.068Z,18.30
2018-10-07T13:58:40.716Z,18.30
2018-10-07T14:01:11.344Z,18.30
2018-10-07T14:03:40.649Z,18.30
2018-10-07T14:06:09.270Z,18.30
2018-10-07T14:08:46.482Z,18.30
2018-10-07T14:11:16.535Z,18.30
2018-10-07T14:13:45.245Z,18.20
2018-10-07T14:16:14.914Z,18.20
2018-10-07T14:18:43.867Z,18.10
2018-10-07T14:21:12.461Z,18.00
2018-10-07T14:23:41.486Z,17.90
2018-10-07T14:26:10.141Z,17.80
2018-10-07T14:28:39.840Z,17.80
2018-10-07T14:31:08.426Z,17.70
2018-10-07T14:33:37.202Z,17.70
2018-10-07T14:36:06.195Z,17.60
2018-10-07T14:38:34.873Z,17.50
2018-10-07T14:41:05.396Z,17.50
2018-10-07T14:43:34.282Z,17.50
2018-10-07T14:46:03.026Z,17.60
2018-10-07T14:48:31.749Z,17.60
2018-10-07T14:51:00.481Z,17.60
2018-10-07T14:53:29.966Z,17.60
2018-10-07T14:55:58.570Z,17.50
2018-10-07T14:58:27.102Z,17.50
2018-10-07T15:00:55.838Z,17.50
2018-10-07T15:03:24.456Z,17.50
2018-10-07T15:05:53.217Z,17.40
2018-10-07T15:08:24.547Z,17.40
2018-10-07T15:10:58.971Z,17.30
2018-10-07T15:13:32.866Z,17.30
2018-10-07T15:16:06.797Z,17.30
2018-10-07T15:18:46.729Z,17.30
2018-10-07T15:21:16.664Z,17.20
2018-10-07T15:23:46.886Z,17.30
2018-10-07T15:26:15.584Z,17.30
2018-10-07T15:28:46.146Z,17.20
2018-10-07T15:31:17.538Z,17.20
2018-10-07T15:33:46.440Z,17.10
2018-10-07T15:36:17.067Z,17.00
2018-10-07T15:38:45.634Z,17.00
2018-10-07T15:41:14.196Z,17.00
2018-10-07T15:43:43.717Z,17.00
2018-10-07T15:46:12.498Z,16.90
2018-10-07T15:48:41.140Z,16.90
2018-10-07T15:51:09.701Z,16.90
2018-10-07T15:53:38.435Z,16.80
2018-10-07T15:56:06.728Z,16.80
2018-10-07T15:58:35.798Z,16.70
2018-10-07T16:01:05.074Z,16.70
2018-10-07T16:03:33.704Z,16.60
2018-10-07T16:06:02.250Z,16.50
2018-10-07T16:08:30.777Z,16.50
2018-10-07T16:10:59.381Z,16.40
2018-10-07T16:13:28.044Z,16.40
2018-10-07T16:15:57.244Z,16.30
2018-10-07T16:18:26.161Z,16.30
2018-10-07T16:20:54.726Z,16.20
2018-10-07T16:23:23.291Z,16.20
2018-10-07T16:25:51.921Z,16.10
2018-10-07T16:28:20.417Z,16.10
2018-10-07T16:30:49.263Z,16.00
2018-10-07T16:33:17.866Z,16.00
2018-10-07T16:35:46.648Z,15.90
2018-10-07T16:38:16.125Z,15.90
2018-10-07T16:40:44.815Z,15.80
2018-10-07T16:43:13.956Z,15.80
2018-10-07T16:45:42.580Z,15.70
2018-10-07T16:48:11.473Z,15.70
2018-10-07T16:50:40.066Z,15.70
2018-10-07T16:56:20.688Z,15.60
2018-10-07T16:58:50.646Z,15.60
2018-10-07T17:04:01.564Z,15.40
2018-10-07T17:06:33.134Z,15.30
2018-10-07T17:09:07.731Z,15.20
2018-10-07T17:11:48.527Z,15.10
2018-10-07T17:14:20.923Z,15.10
2018-10-07T17:16:50.015Z,15.00
2018-10-07T17:19:18.532Z,14.90
2018-10-07T17:21:46.991Z,14.80
2018-10-07T17:24:17.996Z,14.80
2018-10-07T17:26:50.434Z,14.70
2018-10-07T17:29:20.049Z,14.70
2018-10-07T17:31:50.514Z,14.60
2018-10-07T17:34:18.972Z,14.50
2018-10-07T17:36:47.476Z,14.40
2018-10-07T17:39:16.024Z,14.40
2018-10-07T17:41:48.559Z,14.30
2018-10-07T17:44:17.075Z,14.30
2018-10-07T17:46:45.571Z,14.30
2018-10-07T17:49:14.091Z,14.20
2018-10-07T17:54:18.054Z,14.10
2018-10-07T17:56:50.264Z,14.10
2018-10-07T17:59:19.778Z,14.00
2018-10-07T18:01:49.882Z,14.00
2018-10-07T18:04:20.011Z,13.90
2018-10-07T18:06:49.580Z,13.90
2018-10-07T18:09:18.061Z,13.90
2018-10-07T18:11:46.584Z,13.80
2018-10-07T18:14:16.050Z,13.80
2018-10-07T18:16:44.631Z,13.80
2018-10-07T18:19:13.269Z,13.70
2018-10-07T18:21:41.832Z,13.70
2018-10-07T18:24:10.318Z,13.60
2018-10-07T18:26:38.783Z,13.60
2018-10-07T18:29:07.293Z,13.60
2018-10-07T18:31:35.749Z,13.50
2018-10-07T18:34:04.257Z,13.50
2018-10-07T18:36:32.730Z,13.50
2018-10-07T18:39:17.955Z,13.40
2018-10-07T18:41:49.276Z,13.40
2018-10-07T18:44:20.782Z,13.40
2018-10-07T18:46:50.621Z,13.30
2018-10-07T18:49:20.777Z,13.30
2018-10-07T18:51:49.738Z,13.30
2018-10-07T18:54:20.765Z,13.20
2018-10-07T18:56:50.415Z,13.20
2018-10-07T18:59:19.082Z,13.10
2018-10-07T19:01:49.206Z,13.10
2018-10-07T19:04:17.982Z,13.10
2018-10-07T19:06:49.051Z,13.10
2018-10-07T19:09:18.603Z,13.00
2018-10-07T19:11:48.352Z,13.00
2018-10-07T19:14:19.790Z,12.90
2018-10-07T19:16:48.277Z,12.90
2018-10-07T19:19:20.173Z,12.90
2018-10-07T19:21:50.417Z,12.90
2018-10-07T19:24:18.883Z,12.80
2018-10-07T19:26:51.033Z,12.80
2018-10-07T19:29:20.582Z,12.80
2018-10-07T19:31:50.340Z,12.80
2018-10-07T19:34:20.297Z,12.70
2018-10-07T19:36:49.612Z,12.70
2018-10-07T19:39:20.589Z,12.70
2018-10-07T19:41:50.223Z,12.70
2018-10-07T19:44:19.790Z,12.70
2018-10-07T19:46:48.355Z,12.70
2018-10-07T19:49:17.862Z,12.60
2018-10-07T19:51:47.413Z,12.60
2018-10-07T19:54:17.993Z,12.60
2018-10-07T19:56:48.175Z,12.50
2018-10-07T19:59:17.990Z,12.50
2018-10-07T20:01:47.615Z,12.50
2018-10-07T20:04:17.756Z,12.40
2018-10-07T20:06:47.750Z,12.40
2018-10-07T20:09:18.882Z,12.40
2018-10-07T20:11:52.171Z,12.40
2018-10-07T20:14:29.145Z,12.30
2018-10-07T20:16:59.680Z,12.30
2018-10-07T20:19:29.817Z,12.30
2018-10-07T20:22:01.374Z,12.30
2018-10-07T20:24:29.853Z,12.30
2018-10-07T20:27:01.641Z,12.30
2018-10-07T20:29:30.066Z,12.30
2018-10-07T20:32:04.961Z,12.30
2018-10-07T20:35:24.867Z,12.30
2018-10-07T20:37:53.973Z,12.30
2018-10-07T20:40:23.735Z,12.20
2018-10-07T20:42:53.714Z,12.10
2018-10-07T20:45:22.188Z,12.10
2018-10-07T20:47:56.266Z,12.10
2018-10-07T20:50:25.339Z,12.10
2018-10-07T20:52:54.852Z,12.10
2018-10-07T20:55:23.604Z,12.10
2018-10-07T20:57:55.318Z,12.10
2018-10-07T21:00:24.087Z,12.00
2018-10-07T21:02:52.696Z,12.00
2018-10-07T21:05:23.289Z,12.00
2018-10-07T21:07:57.542Z,11.90
2018-10-07T21:13:17.578Z,11.90
2018-10-07T21:15:46.162Z,11.90
2018-10-07T21:20:54.951Z,11.90
2018-10-07T21:23:24.533Z,11.80
2018-10-07T21:25:54.254Z,11.80
2018-10-07T21:28:23.044Z,11.80
2018-10-07T21:30:51.818Z,11.80
2018-10-07T21:33:20.291Z,11.80
2018-10-07T21:35:48.834Z,11.80
2018-10-07T21:38:17.260Z,11.70
2018-10-07T21:40:45.741Z,11.70
2018-10-07T21:43:14.269Z,11.60
2018-10-07T21:45:42.721Z,11.60
2018-10-07T21:48:11.338Z,11.60
2018-10-07T21:50:41.548Z,11.50
2018-10-07T21:53:10.056Z,11.60
2018-10-07T21:55:38.604Z,11.50
2018-10-07T21:58:07.114Z,11.50
2018-10-07T22:00:35.534Z,11.50
2018-10-07T22:03:04.068Z,11.50
2018-10-07T22:05:32.652Z,11.50
2018-10-07T22:08:11.929Z,11.50
2018-10-07T22:10:40.446Z,11.40
2018-10-07T22:13:14.808Z,11.40
2018-10-07T22:15:43.329Z,11.50
2018-10-07T22:18:12.251Z,11.50
2018-10-07T22:20:42.493Z,11.50
2018-10-07T22:23:11.136Z,11.50
2018-10-07T22:25:39.638Z,11.50
2018-10-07T22:28:08.087Z,11.50
2018-10-07T22:30:36.455Z,11.50
2018-10-07T22:33:04.944Z,11.50
2018-10-07T22:35:33.406Z,11.60
2018-10-07T22:38:01.838Z,11.60
2018-10-07T22:40:30.256Z,11.60
2018-10-07T22:42:58.753Z,11.60
2018-10-07T22:45:27.167Z,11.50
2018-10-07T22:47:55.574Z,11.50
2018-10-07T22:50:24.262Z,11.40
2018-10-07T22:52:53.015Z,11.30
2018-10-07T22:55:21.501Z,11.30
2018-10-07T22:57:50.089Z,11.30
2018-10-07T23:00:18.720Z,11.30
2018-10-07T23:02:47.173Z,11.30
2018-10-07T23:05:15.758Z,11.30
2018-10-07T23:07:54.416Z,11.20
2018-10-07T23:10:22.998Z,11.20
2018-10-07T23:12:51.411Z,11.20
2018-10-07T23:15:19.933Z,11.20
2018-10-07T23:17:48.345Z,11.20
2018-10-07T23:20:16.814Z,11.20
2018-10-07T23:22:49.169Z,11.10
2018-10-07T23:25:20.733Z,11.10
2018-10-07T23:27:49.218Z,11.10
2018-10-07T23:30:17.734Z,11.10
2018-10-07T23:32:46.272Z,11.00
2018-10-07T23:35:24.294Z,11.00
2018-10-07T23:37:53.061Z,11.00
2018-10-07T23:40:21.470Z,11.00
2018-10-07T23:42:49.861Z,10.90
2018-10-07T23:45:18.416Z,10.90
2018-10-07T23:47:46.897Z,10.90
2018-10-07T23:52:50.270Z,10.80
2018-10-07T23:55:18.900Z,10.80
2018-10-07T23:57:47.430Z,10.70
